sensor_id;sensor_type;location;lat;lon;timestamp;P1;durP1;ratioP1;P2;durP2;ratioP2
68247;SDS011;55064;49.636;12.164;2023-11-21T00:02:18;6.07;;;1.50;;
68247;SDS011;55064;49.636;12.164;2023-11-21T00:04:43;6.47;;;1.57;;
68247;SDS011;55064;49.636;12.164;2023-11-21T00:07:09;5.77;;;1.60;;
68247;SDS011;55064;49.636;12.164;2023-11-21T00:09:34;6.70;;;1.60;;
68247;SDS011;55064;49.636;12.164;2023-11-21T00:12:01;6.85;;;1.60;;
68247;SDS011;55064;49.636;12.164;2023-11-21T00:14:27;6.53;;;1.60;;
68247;SDS011;55064;49.636;12.164;2023-11-21T00:16:52;8.90;;;1.93;;
68247;SDS011;55064;49.636;12.164;2023-11-21T00:19:18;6.50;;;1.87;;
68247;SDS011;55064;49.636;12.164;2023-11-21T00:21:43;6.10;;;1.57;;
68247;SDS011;55064;49.636;12.164;2023-11-21T00:24:10;6.43;;;1.70;;
68247;SDS011;55064;49.636;12.164;2023-11-21T00:26:38;7.38;;;1.90;;
68247;SDS011;55064;49.636;12.164;2023-11-21T00:29:04;6.20;;;1.70;;
68247;SDS011;55064;49.636;12.164;2023-11-21T00:31:33;8.27;;;1.90;;
68247;SDS011;55064;49.636;12.164;2023-11-21T00:33:59;6.80;;;1.83;;
68247;SDS011;55064;49.636;12.164;2023-11-21T00:36:24;6.90;;;2.00;;
68247;SDS011;55064;49.636;12.164;2023-11-21T00:38:50;5.30;;;1.58;;
68247;SDS011;55064;49.636;12.164;2023-11-21T00:41:16;6.83;;;2.00;;
68247;SDS011;55064;49.636;12.164;2023-11-21T00:43:41;4.53;;;1.47;;
68247;SDS011;55064;49.636;12.164;2023-11-21T00:46:07;7.10;;;1.77;;
68247;SDS011;55064;49.636;12.164;2023-11-21T00:48:32;8.47;;;2.00;;
68247;SDS011;55064;49.636;12.164;2023-11-21T00:50:58;8.48;;;1.95;;
68247;SDS011;55064;49.636;12.164;2023-11-21T00:53:23;7.20;;;1.90;;
68247;SDS011;55064;49.636;12.164;2023-11-21T00:55:49;7.53;;;1.87;;
68247;SDS011;55064;49.636;12.164;2023-11-21T00:58:14;8.20;;;1.77;;
68247;SDS011;55064;49.636;12.164;2023-11-21T01:00:40;6.27;;;2.10;;
68247;SDS011;55064;49.636;12.164;2023-11-21T01:03:05;7.32;;;2.00;;
68247;SDS011;55064;49.636;12.164;2023-11-21T01:05:32;7.97;;;1.73;;
68247;SDS011;55064;49.636;12.164;2023-11-21T01:07:59;7.57;;;2.08;;
68247;SDS011;55064;49.636;12.164;2023-11-21T01:10:24;5.73;;;1.80;;
68247;SDS011;55064;49.636;12.164;2023-11-21T01:12:50;6.30;;;2.03;;
68247;SDS011;55064;49.636;12.164;2023-11-21T01:15:15;9.27;;;2.10;;
68247;SDS011;55064;49.636;12.164;2023-11-21T01:17:40;5.90;;;1.70;;
68247;SDS011;55064;49.636;12.164;2023-11-21T01:20:06;5.97;;;2.00;;
68247;SDS011;55064;49.636;12.164;2023-11-21T01:22:38;6.80;;;1.90;;
68247;SDS011;55064;49.636;12.164;2023-11-21T01:25:04;6.55;;;1.65;;
68247;SDS011;55064;49.636;12.164;2023-11-21T01:27:31;5.72;;;1.70;;
68247;SDS011;55064;49.636;12.164;2023-11-21T01:29:56;5.73;;;1.70;;
68247;SDS011;55064;49.636;12.164;2023-11-21T01:32:22;5.73;;;1.80;;
68247;SDS011;55064;49.636;12.164;2023-11-21T01:34:49;7.25;;;1.80;;
68247;SDS011;55064;49.636;12.164;2023-11-21T01:37:15;7.15;;;1.45;;
68247;SDS011;55064;49.636;12.164;2023-11-21T01:39:42;7.50;;;1.80;;
68247;SDS011;55064;49.636;12.164;2023-11-21T01:42:09;6.55;;;1.80;;
68247;SDS011;55064;49.636;12.164;2023-11-21T01:44:36;5.45;;;1.77;;
68247;SDS011;55064;49.636;12.164;2023-11-21T01:47:01;5.77;;;1.67;;
68247;SDS011;55064;49.636;12.164;2023-11-21T01:49:29;6.55;;;1.83;;
68247;SDS011;55064;49.636;12.164;2023-11-21T01:51:57;6.45;;;1.60;;
68247;SDS011;55064;49.636;12.164;2023-11-21T01:54:23;5.90;;;1.30;;
68247;SDS011;55064;49.636;12.164;2023-11-21T01:56:48;7.13;;;1.92;;
68247;SDS011;55064;49.636;12.164;2023-11-21T01:59:14;6.87;;;1.50;;
68247;SDS011;55064;49.636;12.164;2023-11-21T02:01:48;6.13;;;1.48;;
68247;SDS011;55064;49.636;12.164;2023-11-21T02:04:15;5.20;;;1.60;;
68247;SDS011;55064;49.636;12.164;2023-11-21T02:06:41;4.30;;;1.23;;
68247;SDS011;55064;49.636;12.164;2023-11-21T02:09:06;5.43;;;1.47;;
68247;SDS011;55064;49.636;12.164;2023-11-21T02:11:31;5.83;;;1.40;;
68247;SDS011;55064;49.636;12.164;2023-11-21T02:13:59;6.25;;;1.40;;
68247;SDS011;55064;49.636;12.164;2023-11-21T02:16:26;4.95;;;1.30;;
68247;SDS011;55064;49.636;12.164;2023-11-21T02:18:52;3.95;;;1.20;;
68247;SDS011;55064;49.636;12.164;2023-11-21T02:21:18;5.53;;;1.30;;
68247;SDS011;55064;49.636;12.164;2023-11-21T02:23:44;5.57;;;1.23;;
68247;SDS011;55064;49.636;12.164;2023-11-21T02:26:11;6.03;;;1.60;;
68247;SDS011;55064;49.636;12.164;2023-11-21T02:28:37;5.20;;;1.27;;
68247;SDS011;55064;49.636;12.164;2023-11-21T02:31:04;7.38;;;1.30;;
68247;SDS011;55064;49.636;12.164;2023-11-21T02:33:29;7.23;;;1.70;;
68247;SDS011;55064;49.636;12.164;2023-11-21T02:35:58;5.93;;;1.58;;
68247;SDS011;55064;49.636;12.164;2023-11-21T02:38:27;5.97;;;1.40;;
68247;SDS011;55064;49.636;12.164;2023-11-21T02:40:52;4.07;;;1.30;;
68247;SDS011;55064;49.636;12.164;2023-11-21T02:43:18;5.22;;;1.45;;
68247;SDS011;55064;49.636;12.164;2023-11-21T02:45:43;5.10;;;1.50;;
68247;SDS011;55064;49.636;12.164;2023-11-21T02:48:09;4.93;;;1.50;;
68247;SDS011;55064;49.636;12.164;2023-11-21T02:50:34;5.20;;;1.60;;
68247;SDS011;55064;49.636;12.164;2023-11-21T02:53:00;4.90;;;1.43;;
68247;SDS011;55064;49.636;12.164;2023-11-21T02:55:26;5.88;;;1.60;;
68247;SDS011;55064;49.636;12.164;2023-11-21T02:57:52;5.75;;;1.50;;
68247;SDS011;55064;49.636;12.164;2023-11-21T03:00:18;5.23;;;1.30;;
68247;SDS011;55064;49.636;12.164;2023-11-21T03:02:44;5.43;;;1.30;;
68247;SDS011;55064;49.636;12.164;2023-11-21T03:05:12;4.88;;;1.35;;
68247;SDS011;55064;49.636;12.164;2023-11-21T03:07:39;6.47;;;1.30;;
68247;SDS011;55064;49.636;12.164;2023-11-21T03:10:05;5.38;;;1.30;;
68247;SDS011;55064;49.636;12.164;2023-11-21T03:12:34;4.17;;;1.13;;
68247;SDS011;55064;49.636;12.164;2023-11-21T03:14:59;6.57;;;1.48;;
68247;SDS011;55064;49.636;12.164;2023-11-21T03:17:26;5.55;;;1.50;;
68247;SDS011;55064;49.636;12.164;2023-11-21T03:19:52;4.17;;;1.27;;
68247;SDS011;55064;49.636;12.164;2023-11-21T03:22:17;5.40;;;1.37;;
68247;SDS011;55064;49.636;12.164;2023-11-21T03:24:42;6.10;;;1.50;;
68247;SDS011;55064;49.636;12.164;2023-11-21T03:27:08;4.37;;;1.37;;
68247;SDS011;55064;49.636;12.164;2023-11-21T03:29:33;4.60;;;1.40;;
68247;SDS011;55064;49.636;12.164;2023-11-21T03:31:58;6.93;;;1.30;;
68247;SDS011;55064;49.636;12.164;2023-11-21T03:34:27;5.83;;;1.30;;
68247;SDS011;55064;49.636;12.164;2023-11-21T03:36:52;6.33;;;1.60;;
68247;SDS011;55064;49.636;12.164;2023-11-21T03:39:21;6.72;;;1.60;;
68247;SDS011;55064;49.636;12.164;2023-11-21T03:41:47;5.18;;;1.83;;
68247;SDS011;55064;49.636;12.164;2023-11-21T03:44:13;5.93;;;1.80;;
68247;SDS011;55064;49.636;12.164;2023-11-21T03:46:39;5.95;;;1.58;;
68247;SDS011;55064;49.636;12.164;2023-11-21T03:49:04;7.37;;;1.50;;
68247;SDS011;55064;49.636;12.164;2023-11-21T03:51:29;5.37;;;1.60;;
68247;SDS011;55064;49.636;12.164;2023-11-21T03:53:55;6.80;;;1.57;;
68247;SDS011;55064;49.636;12.164;2023-11-21T03:56:20;5.67;;;1.80;;
68247;SDS011;55064;49.636;12.164;2023-11-21T03:58:47;6.05;;;1.70;;
68247;SDS011;55064;49.636;12.164;2023-11-21T04:01:19;5.07;;;1.43;;
68247;SDS011;55064;49.636;12.164;2023-11-21T04:03:48;5.90;;;1.30;;
68247;SDS011;55064;49.636;12.164;2023-11-21T04:06:14;4.68;;;1.20;;
68247;SDS011;55064;49.636;12.164;2023-11-21T04:08:39;5.87;;;1.17;;
68247;SDS011;55064;49.636;12.164;2023-11-21T04:11:05;5.68;;;1.33;;
68247;SDS011;55064;49.636;12.164;2023-11-21T04:13:30;5.70;;;1.20;;
68247;SDS011;55064;49.636;12.164;2023-11-21T04:15:56;6.17;;;1.43;;
68247;SDS011;55064;49.636;12.164;2023-11-21T04:18:21;5.10;;;1.40;;
68247;SDS011;55064;49.636;12.164;2023-11-21T04:20:48;4.22;;;1.30;;
68247;SDS011;55064;49.636;12.164;2023-11-21T04:23:13;4.77;;;1.17;;
68247;SDS011;55064;49.636;12.164;2023-11-21T04:25:40;5.07;;;1.27;;
68247;SDS011;55064;49.636;12.164;2023-11-21T04:28:05;4.00;;;1.20;;
68247;SDS011;55064;49.636;12.164;2023-11-21T04:30:31;4.30;;;1.27;;
68247;SDS011;55064;49.636;12.164;2023-11-21T04:32:57;5.13;;;1.08;;
68247;SDS011;55064;49.636;12.164;2023-11-21T04:35:23;4.50;;;1.23;;
68247;SDS011;55064;49.636;12.164;2023-11-21T04:37:48;4.53;;;1.20;;
68247;SDS011;55064;49.636;12.164;2023-11-21T04:40:13;6.53;;;1.67;;
68247;SDS011;55064;49.636;12.164;2023-11-21T04:42:39;4.65;;;1.23;;
68247;SDS011;55064;49.636;12.164;2023-11-21T04:45:05;6.67;;;1.50;;
68247;SDS011;55064;49.636;12.164;2023-11-21T04:47:34;6.40;;;1.33;;
68247;SDS011;55064;49.636;12.164;2023-11-21T04:49:59;4.70;;;1.40;;
68247;SDS011;55064;49.636;12.164;2023-11-21T04:52:24;4.80;;;1.40;;
68247;SDS011;55064;49.636;12.164;2023-11-21T04:54:50;6.37;;;1.63;;
68247;SDS011;55064;49.636;12.164;2023-11-21T04:57:16;5.38;;;1.60;;
68247;SDS011;55064;49.636;12.164;2023-11-21T04:59:43;4.47;;;1.20;;
68247;SDS011;55064;49.636;12.164;2023-11-21T05:02:09;3.90;;;1.10;;
68247;SDS011;55064;49.636;12.164;2023-11-21T05:04:34;5.80;;;1.30;;
68247;SDS011;55064;49.636;12.164;2023-11-21T05:06:59;3.57;;;1.07;;
68247;SDS011;55064;49.636;12.164;2023-11-21T05:09:25;4.78;;;1.40;;
68247;SDS011;55064;49.636;12.164;2023-11-21T05:11:53;4.85;;;1.20;;
68247;SDS011;55064;49.636;12.164;2023-11-21T05:14:19;6.03;;;1.70;;
68247;SDS011;55064;49.636;12.164;2023-11-21T05:16:44;4.87;;;1.40;;
68247;SDS011;55064;49.636;12.164;2023-11-21T05:19:09;6.63;;;2.23;;
68247;SDS011;55064;49.636;12.164;2023-11-21T05:21:35;9.50;;;2.47;;
68247;SDS011;55064;49.636;12.164;2023-11-21T05:24:01;6.00;;;2.20;;
68247;SDS011;55064;49.636;12.164;2023-11-21T05:26:26;6.57;;;2.27;;
68247;SDS011;55064;49.636;12.164;2023-11-21T05:28:52;7.35;;;2.38;;
68247;SDS011;55064;49.636;12.164;2023-11-21T05:31:18;6.07;;;2.10;;
68247;SDS011;55064;49.636;12.164;2023-11-21T05:33:43;7.37;;;2.70;;
68247;SDS011;55064;49.636;12.164;2023-11-21T05:36:10;7.13;;;2.50;;
68247;SDS011;55064;49.636;12.164;2023-11-21T05:38:35;8.73;;;3.33;;
68247;SDS011;55064;49.636;12.164;2023-11-21T05:41:01;9.20;;;4.30;;
68247;SDS011;55064;49.636;12.164;2023-11-21T05:43:27;8.60;;;3.75;;
68247;SDS011;55064;49.636;12.164;2023-11-21T05:45:54;6.93;;;2.57;;
68247;SDS011;55064;49.636;12.164;2023-11-21T05:48:20;8.55;;;2.45;;
68247;SDS011;55064;49.636;12.164;2023-11-21T05:50:46;7.10;;;2.40;;
68247;SDS011;55064;49.636;12.164;2023-11-21T05:53:11;7.07;;;2.30;;
68247;SDS011;55064;49.636;12.164;2023-11-21T05:55:36;7.50;;;2.80;;
68247;SDS011;55064;49.636;12.164;2023-11-21T05:58:02;5.50;;;2.07;;
68247;SDS011;55064;49.636;12.164;2023-11-21T06:00:27;5.00;;;1.70;;
68247;SDS011;55064;49.636;12.164;2023-11-21T06:02:53;6.38;;;2.00;;
68247;SDS011;55064;49.636;12.164;2023-11-21T06:05:19;5.40;;;1.60;;
68247;SDS011;55064;49.636;12.164;2023-11-21T06:07:48;5.03;;;1.70;;
68247;SDS011;55064;49.636;12.164;2023-11-21T06:10:14;5.65;;;1.70;;
68247;SDS011;55064;49.636;12.164;2023-11-21T06:12:39;6.47;;;2.23;;
68247;SDS011;55064;49.636;12.164;2023-11-21T06:15:08;5.85;;;2.22;;
68247;SDS011;55064;49.636;12.164;2023-11-21T06:17:37;8.68;;;2.90;;
68247;SDS011;55064;49.636;12.164;2023-11-21T06:20:06;9.40;;;3.47;;
68247;SDS011;55064;49.636;12.164;2023-11-21T06:22:38;9.80;;;2.92;;
68247;SDS011;55064;49.636;12.164;2023-11-21T06:25:05;9.70;;;3.30;;
68247;SDS011;55064;49.636;12.164;2023-11-21T06:27:32;8.15;;;2.90;;
68247;SDS011;55064;49.636;12.164;2023-11-21T06:29:59;7.72;;;2.30;;
68247;SDS011;55064;49.636;12.164;2023-11-21T06:32:24;6.77;;;2.10;;
68247;SDS011;55064;49.636;12.164;2023-11-21T06:34:51;5.28;;;1.85;;
68247;SDS011;55064;49.636;12.164;2023-11-21T06:37:19;5.43;;;1.70;;
68247;SDS011;55064;49.636;12.164;2023-11-21T06:39:47;7.10;;;2.20;;
68247;SDS011;55064;49.636;12.164;2023-11-21T06:42:13;6.23;;;2.03;;
68247;SDS011;55064;49.636;12.164;2023-11-21T06:44:40;7.85;;;2.20;;
68247;SDS011;55064;49.636;12.164;2023-11-21T06:47:06;7.13;;;2.50;;
68247;SDS011;55064;49.636;12.164;2023-11-21T06:49:32;8.53;;;3.80;;
68247;SDS011;55064;49.636;12.164;2023-11-21T06:51:57;11.10;;;4.47;;
68247;SDS011;55064;49.636;12.164;2023-11-21T06:54:23;17.55;;;6.30;;
68247;SDS011;55064;49.636;12.164;2023-11-21T06:56:49;13.35;;;5.28;;
68247;SDS011;55064;49.636;12.164;2023-11-21T06:59:15;10.03;;;4.50;;
68247;SDS011;55064;49.636;12.164;2023-11-21T07:01:40;9.63;;;4.20;;
68247;SDS011;55064;49.636;12.164;2023-11-21T07:04:06;8.82;;;3.80;;
68247;SDS011;55064;49.636;12.164;2023-11-21T07:06:32;9.37;;;4.53;;
68247;SDS011;55064;49.636;12.164;2023-11-21T07:08:58;8.88;;;3.80;;
68247;SDS011;55064;49.636;12.164;2023-11-21T07:11:23;8.27;;;3.30;;
68247;SDS011;55064;49.636;12.164;2023-11-21T07:13:50;7.10;;;3.10;;
68247;SDS011;55064;49.636;12.164;2023-11-21T07:16:15;8.37;;;3.30;;
68247;SDS011;55064;49.636;12.164;2023-11-21T07:18:41;10.20;;;3.80;;
68247;SDS011;55064;49.636;12.164;2023-11-21T07:21:06;7.83;;;3.20;;
68247;SDS011;55064;49.636;12.164;2023-11-21T07:23:33;8.13;;;2.90;;
68247;SDS011;55064;49.636;12.164;2023-11-21T07:25:58;5.90;;;2.27;;
68247;SDS011;55064;49.636;12.164;2023-11-21T07:28:24;8.33;;;2.80;;
68247;SDS011;55064;49.636;12.164;2023-11-21T07:30:50;7.05;;;2.63;;
68247;SDS011;55064;49.636;12.164;2023-11-21T07:33:16;7.13;;;2.63;;
68247;SDS011;55064;49.636;12.164;2023-11-21T07:35:42;7.75;;;2.80;;
68247;SDS011;55064;49.636;12.164;2023-11-21T07:38:07;8.93;;;2.63;;
68247;SDS011;55064;49.636;12.164;2023-11-21T07:40:33;9.32;;;3.25;;
68247;SDS011;55064;49.636;12.164;2023-11-21T07:42:59;7.70;;;2.60;;
68247;SDS011;55064;49.636;12.164;2023-11-21T07:45:24;7.33;;;2.40;;
68247;SDS011;55064;49.636;12.164;2023-11-21T07:47:52;7.05;;;2.40;;
68247;SDS011;55064;49.636;12.164;2023-11-21T07:50:18;5.88;;;2.20;;
68247;SDS011;55064;49.636;12.164;2023-11-21T07:52:45;7.63;;;2.60;;
68247;SDS011;55064;49.636;12.164;2023-11-21T07:55:10;6.23;;;2.33;;
68247;SDS011;55064;49.636;12.164;2023-11-21T07:57:36;7.47;;;2.67;;
68247;SDS011;55064;49.636;12.164;2023-11-21T08:00:02;8.80;;;3.00;;
68247;SDS011;55064;49.636;12.164;2023-11-21T08:02:28;8.70;;;2.70;;
68247;SDS011;55064;49.636;12.164;2023-11-21T08:04:54;6.83;;;2.53;;
68247;SDS011;55064;49.636;12.164;2023-11-21T08:07:21;8.20;;;2.35;;
68247;SDS011;55064;49.636;12.164;2023-11-21T08:09:47;8.43;;;3.10;;
68247;SDS011;55064;49.636;12.164;2023-11-21T08:12:15;7.85;;;2.60;;
68247;SDS011;55064;49.636;12.164;2023-11-21T08:14:40;8.43;;;3.23;;
68247;SDS011;55064;49.636;12.164;2023-11-21T08:17:06;9.07;;;3.20;;
68247;SDS011;55064;49.636;12.164;2023-11-21T08:19:31;9.17;;;3.60;;
68247;SDS011;55064;49.636;12.164;2023-11-21T08:21:57;8.93;;;3.67;;
68247;SDS011;55064;49.636;12.164;2023-11-21T08:24:24;8.80;;;3.33;;
68247;SDS011;55064;49.636;12.164;2023-11-21T08:26:49;8.57;;;3.33;;
68247;SDS011;55064;49.636;12.164;2023-11-21T08:29:17;9.97;;;3.50;;
68247;SDS011;55064;49.636;12.164;2023-11-21T08:31:43;8.73;;;3.28;;
68247;SDS011;55064;49.636;12.164;2023-11-21T08:34:11;8.52;;;3.50;;
68247;SDS011;55064;49.636;12.164;2023-11-21T08:36:40;10.27;;;3.40;;
68247;SDS011;55064;49.636;12.164;2023-11-21T08:39:07;11.13;;;3.85;;
68247;SDS011;55064;49.636;12.164;2023-11-21T08:41:32;13.80;;;3.57;;
68247;SDS011;55064;49.636;12.164;2023-11-21T08:43:57;12.73;;;4.07;;
68247;SDS011;55064;49.636;12.164;2023-11-21T08:46:23;13.00;;;4.10;;
68247;SDS011;55064;49.636;12.164;2023-11-21T08:48:50;10.82;;;4.00;;
68247;SDS011;55064;49.636;12.164;2023-11-21T08:51:17;8.85;;;3.88;;
68247;SDS011;55064;49.636;12.164;2023-11-21T08:53:43;10.00;;;4.00;;
68247;SDS011;55064;49.636;12.164;2023-11-21T08:56:12;11.03;;;3.43;;
68247;SDS011;55064;49.636;12.164;2023-11-21T08:58:39;10.45;;;4.05;;
68247;SDS011;55064;49.636;12.164;2023-11-21T09:01:04;10.43;;;3.90;;
68247;SDS011;55064;49.636;12.164;2023-11-21T09:03:31;10.23;;;3.65;;
68247;SDS011;55064;49.636;12.164;2023-11-21T09:05:58;11.15;;;4.40;;
68247;SDS011;55064;49.636;12.164;2023-11-21T09:08:24;10.50;;;4.07;;
68247;SDS011;55064;49.636;12.164;2023-11-21T09:10:50;14.85;;;6.28;;
68247;SDS011;55064;49.636;12.164;2023-11-21T09:13:15;16.43;;;6.40;;
68247;SDS011;55064;49.636;12.164;2023-11-21T09:15:41;10.02;;;4.13;;
68247;SDS011;55064;49.636;12.164;2023-11-21T09:18:08;10.43;;;4.53;;
68247;SDS011;55064;49.636;12.164;2023-11-21T09:20:35;14.90;;;4.27;;
68247;SDS011;55064;49.636;12.164;2023-11-21T09:23:00;9.90;;;3.40;;
68247;SDS011;55064;49.636;12.164;2023-11-21T09:25:26;8.65;;;3.60;;
68247;SDS011;55064;49.636;12.164;2023-11-21T09:27:51;9.50;;;4.17;;
68247;SDS011;55064;49.636;12.164;2023-11-21T09:30:16;9.20;;;4.00;;
68247;SDS011;55064;49.636;12.164;2023-11-21T09:32:42;7.78;;;3.40;;
68247;SDS011;55064;49.636;12.164;2023-11-21T09:35:10;7.78;;;3.13;;
68247;SDS011;55064;49.636;12.164;2023-11-21T09:37:36;8.60;;;3.60;;
68247;SDS011;55064;49.636;12.164;2023-11-21T09:40:02;8.15;;;3.28;;
68247;SDS011;55064;49.636;12.164;2023-11-21T09:42:30;8.73;;;3.13;;
68247;SDS011;55064;49.636;12.164;2023-11-21T09:47:42;8.13;;;3.42;;
68247;SDS011;55064;49.636;12.164;2023-11-21T09:50:08;8.43;;;3.50;;
68247;SDS011;55064;49.636;12.164;2023-11-21T09:55:50;9.48;;;3.70;;
68247;SDS011;55064;49.636;12.164;2023-11-21T09:58:17;7.47;;;3.13;;
68247;SDS011;55064;49.636;12.164;2023-11-21T10:00:44;7.05;;;3.08;;
68247;SDS011;55064;49.636;12.164;2023-11-21T10:03:11;8.50;;;2.97;;
68247;SDS011;55064;49.636;12.164;2023-11-21T10:05:38;7.45;;;3.03;;
68247;SDS011;55064;49.636;12.164;2023-11-21T10:08:13;7.80;;;3.58;;
68247;SDS011;55064;49.636;12.164;2023-11-21T10:10:45;9.23;;;3.87;;
68247;SDS011;55064;49.636;12.164;2023-11-21T10:13:13;9.80;;;4.68;;
68247;SDS011;55064;49.636;12.164;2023-11-21T10:15:41;10.55;;;4.88;;
68247;SDS011;55064;49.636;12.164;2023-11-21T10:18:13;9.10;;;3.60;;
68247;SDS011;55064;49.636;12.164;2023-11-21T10:20:40;10.82;;;4.57;;
68247;SDS011;55064;49.636;12.164;2023-11-21T10:23:06;9.13;;;3.30;;
68247;SDS011;55064;49.636;12.164;2023-11-21T10:25:36;8.00;;;2.88;;
68247;SDS011;55064;49.636;12.164;2023-11-21T10:28:02;7.18;;;2.63;;
68247;SDS011;55064;49.636;12.164;2023-11-21T10:30:35;6.32;;;2.40;;
68247;SDS011;55064;49.636;12.164;2023-11-21T10:33:05;8.10;;;3.13;;
68247;SDS011;55064;49.636;12.164;2023-11-21T10:35:46;7.10;;;2.60;;
68247;SDS011;55064;49.636;12.164;2023-11-21T10:38:19;5.18;;;1.80;;
68247;SDS011;55064;49.636;12.164;2023-11-21T10:40:47;4.70;;;1.10;;
68247;SDS011;55064;49.636;12.164;2023-11-21T10:43:14;4.47;;;1.23;;
68247;SDS011;55064;49.636;12.164;2023-11-21T10:45:43;4.67;;;1.40;;
68247;SDS011;55064;49.636;12.164;2023-11-21T10:48:09;4.90;;;1.48;;
68247;SDS011;55064;49.636;12.164;2023-11-21T10:50:36;6.22;;;1.95;;
68247;SDS011;55064;49.636;12.164;2023-11-21T10:53:02;5.18;;;1.80;;
68247;SDS011;55064;49.636;12.164;2023-11-21T10:55:31;5.65;;;1.90;;
68247;SDS011;55064;49.636;12.164;2023-11-21T10:57:58;4.20;;;1.20;;
68247;SDS011;55064;49.636;12.164;2023-11-21T11:00:26;5.68;;;1.75;;
68247;SDS011;55064;49.636;12.164;2023-11-21T11:02:52;5.03;;;1.55;;
68247;SDS011;55064;49.636;12.164;2023-11-21T11:05:22;4.70;;;1.40;;
68247;SDS011;55064;49.636;12.164;2023-11-21T11:07:50;4.03;;;1.20;;
68247;SDS011;55064;49.636;12.164;2023-11-21T11:10:25;4.10;;;1.20;;
68247;SDS011;55064;49.636;12.164;2023-11-21T11:12:57;4.90;;;1.30;;
68247;SDS011;55064;49.636;12.164;2023-11-21T11:15:24;6.03;;;1.50;;
68247;SDS011;55064;49.636;12.164;2023-11-21T11:17:50;5.70;;;1.50;;
68247;SDS011;55064;49.636;12.164;2023-11-21T11:20:17;4.70;;;1.60;;
68247;SDS011;55064;49.636;12.164;2023-11-21T11:28:38;5.13;;;1.98;;
68247;SDS011;55064;49.636;12.164;2023-11-21T11:31:00;5.90;;;2.38;;
68247;SDS011;55064;49.636;12.164;2023-11-21T11:33:43;5.18;;;1.92;;
68247;SDS011;55064;49.636;12.164;2023-11-21T11:36:25;4.80;;;1.60;;
68247;SDS011;55064;49.636;12.164;2023-11-21T11:38:54;5.18;;;1.95;;
68247;SDS011;55064;49.636;12.164;2023-11-21T11:41:30;5.00;;;1.60;;
68247;SDS011;55064;49.636;12.164;2023-11-21T11:44:02;5.00;;;1.60;;
68247;SDS011;55064;49.636;12.164;2023-11-21T11:46:44;5.85;;;1.60;;
68247;SDS011;55064;49.636;12.164;2023-11-21T11:49:28;4.60;;;1.30;;
68247;SDS011;55064;49.636;12.164;2023-11-21T11:52:55;5.00;;;1.50;;
68247;SDS011;55064;49.636;12.164;2023-11-21T11:54:59;7.18;;;3.85;;
68247;SDS011;55064;49.636;12.164;2023-11-21T11:57:25;7.10;;;3.20;;
68247;SDS011;55064;49.636;12.164;2023-11-21T12:02:56;5.60;;;1.60;;
68247;SDS011;55064;49.636;12.164;2023-11-21T12:05:27;5.75;;;1.67;;
68247;SDS011;55064;49.636;12.164;2023-11-21T12:07:56;4.75;;;1.55;;
68247;SDS011;55064;49.636;12.164;2023-11-21T12:10:29;4.38;;;1.40;;
68247;SDS011;55064;49.636;12.164;2023-11-21T12:12:57;4.70;;;1.70;;
68247;SDS011;55064;49.636;12.164;2023-11-21T12:15:24;4.60;;;1.65;;
68247;SDS011;55064;49.636;12.164;2023-11-21T12:17:52;5.25;;;1.60;;
68247;SDS011;55064;49.636;12.164;2023-11-21T12:20:18;4.78;;;1.60;;
68247;SDS011;55064;49.636;12.164;2023-11-21T12:22:48;4.95;;;1.40;;
68247;SDS011;55064;49.636;12.164;2023-11-21T12:25:16;5.33;;;1.60;;
68247;SDS011;55064;49.636;12.164;2023-11-21T12:27:46;4.93;;;1.40;;
68247;SDS011;55064;49.636;12.164;2023-11-21T12:30:14;4.50;;;1.50;;
68247;SDS011;55064;49.636;12.164;2023-11-21T12:32:43;5.00;;;1.70;;
68247;SDS011;55064;49.636;12.164;2023-11-21T12:35:09;5.53;;;1.70;;
68247;SDS011;55064;49.636;12.164;2023-11-21T12:37:38;6.67;;;1.60;;
68247;SDS011;55064;49.636;12.164;2023-11-21T12:40:05;6.00;;;1.60;;
68247;SDS011;55064;49.636;12.164;2023-11-21T12:42:33;6.32;;;1.70;;
68247;SDS011;55064;49.636;12.164;2023-11-21T12:47:54;6.43;;;2.60;;
68247;SDS011;55064;49.636;12.164;2023-11-21T12:50:24;6.30;;;2.57;;
68247;SDS011;55064;49.636;12.164;2023-11-21T12:53:00;5.70;;;2.20;;
68247;SDS011;55064;49.636;12.164;2023-11-21T12:55:29;8.77;;;3.30;;
68247;SDS011;55064;49.636;12.164;2023-11-21T12:58:02;7.47;;;3.15;;
68247;SDS011;55064;49.636;12.164;2023-11-21T13:00:41;6.47;;;2.00;;
68247;SDS011;55064;49.636;12.164;2023-11-21T13:03:12;5.60;;;1.63;;
68247;SDS011;55064;49.636;12.164;2023-11-21T13:05:42;6.20;;;2.13;;
68247;SDS011;55064;49.636;12.164;2023-11-21T13:08:15;10.38;;;4.18;;
68247;SDS011;55064;49.636;12.164;2023-11-21T13:10:44;10.45;;;3.72;;
68247;SDS011;55064;49.636;12.164;2023-11-21T13:13:13;9.18;;;2.97;;
68247;SDS011;55064;49.636;12.164;2023-11-21T13:15:52;6.07;;;2.33;;
68247;SDS011;55064;49.636;12.164;2023-11-21T13:18:24;5.95;;;1.98;;
68247;SDS011;55064;49.636;12.164;2023-11-21T13:20:54;6.20;;;1.70;;
68247;SDS011;55064;49.636;12.164;2023-11-21T13:23:20;5.57;;;1.70;;
68247;SDS011;55064;49.636;12.164;2023-11-21T13:25:47;4.88;;;1.40;;
68247;SDS011;55064;49.636;12.164;2023-11-21T13:28:14;6.00;;;1.70;;
68247;SDS011;55064;49.636;12.164;2023-11-21T13:30:40;5.05;;;1.70;;
68247;SDS011;55064;49.636;12.164;2023-11-21T13:33:07;6.20;;;1.80;;
68247;SDS011;55064;49.636;12.164;2023-11-21T13:35:37;6.10;;;1.80;;
68247;SDS011;55064;49.636;12.164;2023-11-21T13:40:32;12.67;;;5.63;;
68247;SDS011;55064;49.636;12.164;2023-11-21T13:43:04;6.60;;;2.55;;
68247;SDS011;55064;49.636;12.164;2023-11-21T13:45:30;4.93;;;1.60;;
68247;SDS011;55064;49.636;12.164;2023-11-21T13:47:56;5.77;;;1.93;;
68247;SDS011;55064;49.636;12.164;2023-11-21T13:50:25;13.35;;;5.10;;
68247;SDS011;55064;49.636;12.164;2023-11-21T13:52:57;13.95;;;3.63;;
68247;SDS011;55064;49.636;12.164;2023-11-21T13:55:33;7.93;;;2.15;;
68247;SDS011;55064;49.636;12.164;2023-11-21T13:58:00;7.82;;;2.65;;
68247;SDS011;55064;49.636;12.164;2023-11-21T14:00:27;19.37;;;7.37;;
68247;SDS011;55064;49.636;12.164;2023-11-21T14:03:11;12.55;;;5.18;;
68247;SDS011;55064;49.636;12.164;2023-11-21T14:05:47;9.05;;;3.60;;
68247;SDS011;55064;49.636;12.164;2023-11-21T14:08:20;11.75;;;5.13;;
68247;SDS011;55064;49.636;12.164;2023-11-21T14:10:49;9.02;;;3.28;;
68247;SDS011;55064;49.636;12.164;2023-11-21T14:13:22;6.23;;;2.07;;
68247;SDS011;55064;49.636;12.164;2023-11-21T14:15:49;13.45;;;7.10;;
68247;SDS011;55064;49.636;12.164;2023-11-21T14:18:26;7.20;;;3.15;;
68247;SDS011;55064;49.636;12.164;2023-11-21T14:21:15;5.93;;;2.05;;
68247;SDS011;55064;49.636;12.164;2023-11-21T14:23:41;5.47;;;1.83;;
68247;SDS011;55064;49.636;12.164;2023-11-21T14:26:07;7.40;;;1.60;;
68247;SDS011;55064;49.636;12.164;2023-11-21T14:28:32;5.53;;;1.70;;
68247;SDS011;55064;49.636;12.164;2023-11-21T14:31:00;6.47;;;2.10;;
68247;SDS011;55064;49.636;12.164;2023-11-21T14:33:25;7.50;;;2.97;;
68247;SDS011;55064;49.636;12.164;2023-11-21T14:35:50;6.77;;;3.20;;
68247;SDS011;55064;49.636;12.164;2023-11-21T14:38:16;7.60;;;2.28;;
68247;SDS011;55064;49.636;12.164;2023-11-21T14:40:41;7.30;;;3.00;;
68247;SDS011;55064;49.636;12.164;2023-11-21T14:43:06;8.30;;;3.43;;
68247;SDS011;55064;49.636;12.164;2023-11-21T14:45:32;8.77;;;3.10;;
68247;SDS011;55064;49.636;12.164;2023-11-21T14:47:58;7.68;;;2.80;;
68247;SDS011;55064;49.636;12.164;2023-11-21T14:50:32;7.55;;;2.60;;
68247;SDS011;55064;49.636;12.164;2023-11-21T14:53:10;7.93;;;2.45;;
68247;SDS011;55064;49.636;12.164;2023-11-21T14:55:37;8.73;;;3.37;;